Accueil
METAR-TAF:

METAR-TAF

Aéroports :

Nakhon Ratchasima, Thaïlande

latitude: 14-56-58N, longitude: 102-18-45E, altitude: 233 m

Observation

Le bulletin a été fait il y a 44 minutes, à 22:00 UTC
Vent 7 kt de sud-ouest
Température 28°C
Humidité 70%
Pression 1006 hPa
Visibilité: 8000 m

METAR: VTUQ 182200Z 22007KT 8000 NSC 28/22 Q1006 NOSIG

Heure: 05:44 (22:44 UTC)

Prévision

Le bulletin a été fait il y a 5 heures et 44 minutes, à 17:00 UTC
Prévision valable du 18 à 18 UTC au 19 à 18 UTC
Vent 5 kt de sud-ouest
Visibilité: 8000 m
Quelques nuages à une hauteur de 3000 ft

TAF: VTUQ 181700Z 1818/1918 22005KT 8000 FEW030

Observations et prévisions météorologiques de plus de 4000 aéroports (messages METAR et TAF).

Les stations disponibles sont représentées par des disques jaunes et rouges sur la carte.

Passer la souris dessus pour voir le nom de la station.

Cliquer dessus pour voir les observations et prévisions météorologiques.

Pour changer de carte: cliquez sur les boutons verts avec une croix noire pour zoomer, sur le bouton vert avec un tiret pour effectuer un zoom arrière, ou sur les flèches vertes pour les cartes adjacentes.


METAR-TAF: